createdAt,value
2018-10-18T00:02:42.272Z,16.00
2018-10-18T00:05:47.233Z,16.50
2018-10-18T00:08:53.779Z,17.83
2018-10-18T00:12:00.567Z,24.57
2018-10-18T00:15:08.918Z,18.60
2018-10-18T00:18:15.994Z,20.33
2018-10-18T00:21:20.988Z,17.37
2018-10-18T00:24:26.011Z,15.93
2018-10-18T00:27:32.730Z,17.60
2018-10-18T00:30:37.741Z,17.87
2018-10-18T00:33:44.517Z,18.67
2018-10-18T00:36:51.218Z,19.37
2018-10-18T00:39:58.118Z,19.10
2018-10-18T00:43:04.770Z,17.90
2018-10-18T00:46:11.958Z,17.13
2018-10-18T00:49:16.968Z,19.13
2018-10-18T00:52:23.658Z,19.23
2018-10-18T00:55:31.901Z,19.70
2018-10-18T00:58:38.859Z,19.47
2018-10-18T01:01:45.531Z,16.93
2018-10-18T01:04:54.496Z,19.67
2018-10-18T01:07:59.558Z,18.23
2018-10-18T01:11:05.765Z,21.10
2018-10-18T01:14:12.354Z,19.17
2018-10-18T01:17:18.977Z,16.50
2018-10-18T01:20:25.578Z,17.83
2018-10-18T01:23:34.001Z,18.60
2018-10-18T01:26:38.985Z,17.97
2018-10-18T01:29:43.984Z,17.17
2018-10-18T01:32:49.041Z,18.47
2018-10-18T01:35:56.052Z,16.77
2018-10-18T01:39:03.654Z,16.37
2018-10-18T01:42:10.403Z,17.00
2018-10-18T01:45:17.122Z,18.43
2018-10-18T01:48:22.180Z,17.77
2018-10-18T01:51:27.206Z,18.50
2018-10-18T01:54:34.042Z,18.53
2018-10-18T01:57:40.949Z,18.50
2018-10-18T02:00:47.598Z,19.30
2018-10-18T02:03:52.584Z,18.53
2018-10-18T02:06:57.650Z,16.93
2018-10-18T02:10:03.813Z,17.47
2018-10-18T02:13:08.790Z,22.37
2018-10-18T02:16:15.498Z,19.87
2018-10-18T02:19:22.141Z,18.53
2018-10-18T02:22:27.133Z,21.20
2018-10-18T02:25:33.748Z,21.33
2018-10-18T02:28:40.361Z,19.00
2018-10-18T02:31:48.968Z,17.07
2018-10-18T02:34:53.961Z,19.63
2018-10-18T02:38:00.954Z,20.53
2018-10-18T02:41:08.074Z,18.57
2018-10-18T02:44:14.833Z,19.90
2018-10-18T02:47:21.531Z,18.40
2018-10-18T02:50:28.456Z,20.53
2018-10-18T02:53:35.253Z,15.67
2018-10-18T02:56:40.270Z,19.63
2018-10-18T02:59:47.284Z,19.10
2018-10-18T03:02:52.297Z,18.67
2018-10-18T03:05:58.923Z,18.63
2018-10-18T03:09:06.869Z,19.03
2018-10-18T03:12:11.957Z,16.40
2018-10-18T03:15:16.906Z,18.77
2018-10-18T03:18:27.639Z,16.53
2018-10-18T03:21:34.807Z,17.73
2018-10-18T03:24:41.825Z,19.17
2018-10-18T03:27:48.701Z,17.03
2018-10-18T03:30:53.778Z,17.77
2018-10-18T03:34:00.465Z,18.20
2018-10-18T03:37:05.505Z,19.30
2018-10-18T03:40:12.384Z,18.00
2018-10-18T03:43:19.425Z,20.30
2018-10-18T03:46:26.297Z,19.70
2018-10-18T03:49:32.963Z,18.23
2018-10-18T03:52:39.709Z,15.23
2018-10-18T03:55:46.448Z,20.27
2018-10-18T03:58:51.418Z,17.13
2018-10-18T04:01:58.184Z,19.57
2018-10-18T04:05:12.618Z,18.83
2018-10-18T04:08:19.239Z,19.93
2018-10-18T04:11:24.267Z,16.90
2018-10-18T04:14:29.294Z,15.93
2018-10-18T04:17:34.338Z,19.30
2018-10-18T04:20:41.287Z,15.07
2018-10-18T04:23:48.431Z,18.37
2018-10-18T04:26:53.454Z,19.67
2018-10-18T04:30:00.129Z,18.47
2018-10-18T04:33:08.672Z,17.60
2018-10-18T04:36:15.683Z,18.37
2018-10-18T04:39:20.526Z,16.10
2018-10-18T04:42:25.468Z,17.80
2018-10-18T04:45:30.425Z,18.70
2018-10-18T04:48:35.526Z,17.20
2018-10-18T04:51:40.332Z,16.33
2018-10-18T04:54:46.929Z,21.00
2018-10-18T04:57:51.893Z,20.57
2018-10-18T05:00:56.886Z,15.23
2018-10-18T05:04:01.866Z,15.23
2018-10-18T05:07:06.889Z,23.53
2018-10-18T05:10:11.826Z,18.57
2018-10-18T05:14:58.369Z,20.27
2018-10-18T05:18:03.699Z,14.83
2018-10-18T05:21:08.718Z,19.70
2018-10-18T05:24:13.738Z,15.53
2018-10-18T05:27:18.694Z,18.27
2018-10-18T05:30:23.670Z,15.77
2018-10-18T05:33:28.687Z,16.03
2018-10-18T05:36:33.648Z,13.73
2018-10-18T05:39:38.663Z,13.90
2018-10-18T05:42:43.695Z,15.50
2018-10-18T05:45:48.701Z,17.77
2018-10-18T05:48:53.730Z,17.80
2018-10-18T05:51:58.713Z,16.40
2018-10-18T05:55:04.786Z,18.10
2018-10-18T05:58:09.685Z,15.20
2018-10-18T06:01:14.752Z,19.30
2018-10-18T06:04:25.433Z,19.90
2018-10-18T06:07:30.381Z,20.60
2018-10-18T06:10:46.977Z,21.97
2018-10-18T06:13:52.291Z,18.00
2018-10-18T06:16:57.423Z,19.97
2018-10-18T06:20:02.392Z,16.33
2018-10-18T06:23:07.383Z,23.83
2018-10-18T06:26:12.351Z,22.13
2018-10-18T06:29:17.357Z,43.50
2018-10-18T06:32:22.304Z,30.17
2018-10-18T06:35:27.246Z,26.13
2018-10-18T06:38:32.214Z,23.73
2018-10-18T06:41:38.148Z,22.30
2018-10-18T06:44:43.120Z,20.87
2018-10-18T06:47:48.251Z,24.93
2018-10-18T06:50:53.096Z,27.53
2018-10-18T06:53:58.402Z,20.33
2018-10-18T06:57:04.927Z,25.67
2018-10-18T07:00:12.412Z,25.07
2018-10-18T07:03:17.393Z,22.80
2018-10-18T07:06:22.440Z,19.00
2018-10-18T07:09:46.439Z,23.37
2018-10-18T07:12:51.411Z,25.20
2018-10-18T07:15:56.546Z,40.77
2018-10-18T07:19:01.548Z,46.83
2018-10-18T07:22:07.078Z,43.53
2018-10-18T07:25:13.579Z,34.13
2018-10-18T07:28:18.578Z,32.43
2018-10-18T07:31:23.543Z,26.87
2018-10-18T07:34:28.571Z,32.57
2018-10-18T07:37:33.549Z,37.43
2018-10-18T07:40:38.552Z,28.23
2018-10-18T07:43:43.537Z,29.63
2018-10-18T07:47:00.568Z,30.13
2018-10-18T07:50:05.969Z,39.20
2018-10-18T07:53:19.429Z,33.17
2018-10-18T07:56:24.387Z,34.20
2018-10-18T07:59:37.541Z,39.73
2018-10-18T08:02:43.397Z,41.73
2018-10-18T08:05:48.561Z,58.43
2018-10-18T08:08:54.141Z,54.20
2018-10-18T08:11:59.806Z,45.00
2018-10-18T08:15:06.213Z,46.13
2018-10-18T08:18:18.155Z,49.47
2018-10-18T08:21:23.144Z,53.50
2018-10-18T08:24:28.085Z,69.40
2018-10-18T08:27:33.512Z,73.90
2018-10-18T08:30:38.482Z,79.27
2018-10-18T08:33:43.430Z,80.67
2018-10-18T08:36:48.465Z,74.43
2018-10-18T08:39:53.991Z,75.47
2018-10-18T08:42:58.975Z,73.00
2018-10-18T08:46:04.130Z,73.50
2018-10-18T08:49:09.120Z,75.43
2018-10-18T08:52:14.073Z,76.60
2018-10-18T08:55:19.141Z,72.67
2018-10-18T08:58:24.172Z,77.23
2018-10-18T09:01:29.146Z,75.53
2018-10-18T09:04:34.111Z,73.57
2018-10-18T09:07:39.075Z,74.10
2018-10-18T09:10:44.092Z,70.00
2018-10-18T09:13:49.094Z,72.30
2018-10-18T09:16:56.171Z,70.63
2018-10-18T09:20:01.139Z,68.00
2018-10-18T09:23:06.159Z,68.83
2018-10-18T09:29:42.199Z,63.03
2018-10-18T09:32:48.260Z,61.07
2018-10-18T09:35:53.258Z,61.73
2018-10-18T09:38:58.234Z,56.60
2018-10-18T09:42:03.253Z,51.90
2018-10-18T09:45:09.949Z,53.83
2018-10-18T09:48:15.078Z,49.37
2018-10-18T09:51:26.739Z,47.27
2018-10-18T09:54:31.744Z,54.70
2018-10-18T09:57:36.737Z,51.80
2018-10-18T10:00:47.619Z,54.93
2018-10-18T10:03:52.609Z,52.43
2018-10-18T10:06:57.651Z,52.97
2018-10-18T10:10:02.665Z,51.10
2018-10-18T10:13:08.075Z,55.23
2018-10-18T10:16:13.626Z,42.43
2018-10-18T10:19:18.722Z,48.60
2018-10-18T10:22:23.658Z,45.07
2018-10-18T10:25:28.656Z,45.53
2018-10-18T10:28:33.661Z,37.83
2018-10-18T10:31:38.647Z,42.57
2018-10-18T10:34:43.687Z,40.33
2018-10-18T10:41:20.189Z,37.43
2018-10-18T10:44:25.201Z,41.80
2018-10-18T10:47:30.235Z,37.90
2018-10-18T10:50:35.335Z,42.10
2018-10-18T10:53:40.465Z,40.43
2018-10-18T10:56:47.504Z,37.40
2018-10-18T10:59:52.588Z,39.00
2018-10-18T11:02:57.592Z,35.23
2018-10-18T11:06:02.624Z,38.07
2018-10-18T11:09:08.966Z,36.67
2018-10-18T11:12:14.030Z,37.80
2018-10-18T11:15:19.136Z,34.93
2018-10-18T11:18:24.082Z,35.17
2018-10-18T11:21:29.115Z,36.70
2018-10-18T11:24:34.161Z,34.30
2018-10-18T11:34:40.774Z,35.70
2018-10-18T11:37:45.791Z,35.03
2018-10-18T11:40:50.802Z,37.30
2018-10-18T11:43:55.785Z,33.20
2018-10-18T11:47:00.794Z,36.37
2018-10-18T11:50:05.847Z,36.03
2018-10-18T11:53:10.884Z,36.73
2018-10-18T11:56:15.960Z,35.23
2018-10-18T11:59:20.900Z,37.67
2018-10-18T12:02:25.945Z,32.40
2018-10-18T12:05:30.902Z,32.90
2018-10-18T12:08:35.929Z,33.30
2018-10-18T12:14:57.458Z,29.53
2018-10-18T12:18:02.454Z,33.43
2018-10-18T12:21:13.308Z,31.33
2018-10-18T12:24:18.720Z,33.23
2018-10-18T12:27:23.725Z,34.33
2018-10-18T12:30:28.697Z,36.90
2018-10-18T12:33:33.682Z,34.63
2018-10-18T12:36:38.642Z,36.50
2018-10-18T12:39:43.745Z,30.47
2018-10-18T12:42:49.304Z,30.30
2018-10-18T12:45:54.261Z,34.00
2018-10-18T12:48:59.254Z,30.83
2018-10-18T12:52:04.734Z,36.83
2018-10-18T12:55:09.737Z,31.00
2018-10-18T12:58:14.725Z,31.70
2018-10-18T13:01:19.736Z,30.60
2018-10-18T13:04:24.742Z,29.00
2018-10-18T13:11:00.554Z,25.33
2018-10-18T13:14:05.774Z,24.63
2018-10-18T13:17:10.780Z,26.27
2018-10-18T13:20:15.883Z,30.00
2018-10-18T13:23:20.814Z,24.73
2018-10-18T13:26:25.821Z,25.27
2018-10-18T13:29:30.829Z,24.67
2018-10-18T13:32:35.865Z,22.87
2018-10-18T13:35:40.881Z,26.97
2018-10-18T13:38:45.879Z,24.47
2018-10-18T13:41:50.887Z,20.97
2018-10-18T13:44:57.626Z,20.63
2018-10-18T13:48:04.587Z,17.40
2018-10-18T13:51:09.722Z,17.47
2018-10-18T13:54:19.080Z,17.87
2018-10-18T13:57:26.227Z,22.00
2018-10-18T14:00:33.439Z,17.83
2018-10-18T14:03:40.182Z,25.20
2018-10-18T14:06:47.870Z,25.77
2018-10-18T14:09:52.857Z,32.37
2018-10-18T14:12:59.618Z,43.33
2018-10-18T14:16:06.150Z,24.13
2018-10-18T14:19:13.890Z,24.33
2018-10-18T14:22:20.962Z,27.73
2018-10-18T14:25:27.905Z,28.47
2018-10-18T14:28:38.169Z,28.10
2018-10-18T14:31:45.110Z,29.07
2018-10-18T14:34:51.737Z,27.33
2018-10-18T14:37:58.994Z,28.30
2018-10-18T14:41:07.816Z,27.43
2018-10-18T14:44:16.035Z,26.40
2018-10-18T14:47:23.198Z,28.03
2018-10-18T14:50:28.159Z,30.10
2018-10-18T14:53:37.184Z,27.87
2018-10-18T14:56:46.132Z,28.70
2018-10-18T14:59:55.657Z,29.40
2018-10-18T15:03:01.785Z,30.00
2018-10-18T15:06:08.550Z,33.13
2018-10-18T15:09:15.317Z,34.37
2018-10-18T15:12:22.477Z,33.67
2018-10-18T15:15:29.348Z,34.43
2018-10-18T15:18:34.393Z,34.43
2018-10-18T15:21:39.507Z,32.90
2018-10-18T15:24:44.548Z,32.80
2018-10-18T15:27:51.794Z,33.60
2018-10-18T15:30:58.540Z,36.77
2018-10-18T15:34:06.032Z,35.67
2018-10-18T15:37:11.106Z,34.47
2018-10-18T15:40:16.166Z,33.43
2018-10-18T15:43:25.273Z,34.87
2018-10-18T15:46:30.557Z,35.43
2018-10-18T15:49:35.559Z,29.73
2018-10-18T15:52:40.638Z,35.80
2018-10-18T15:55:45.673Z,34.03
2018-10-18T15:58:52.453Z,33.87
2018-10-18T16:01:59.030Z,34.73
2018-10-18T16:05:07.314Z,32.57
2018-10-18T16:08:14.402Z,32.20
2018-10-18T16:11:33.955Z,37.90
2018-10-18T16:14:39.011Z,37.30
2018-10-18T16:17:48.720Z,35.33
2018-10-18T16:20:57.221Z,37.57
2018-10-18T16:24:04.367Z,37.77
2018-10-18T16:27:11.270Z,35.97
2018-10-18T16:30:19.462Z,39.77
2018-10-18T16:33:26.637Z,38.23
2018-10-18T16:36:35.828Z,34.00
2018-10-18T16:42:43.950Z,44.90
2018-10-18T16:45:50.631Z,36.13
2018-10-18T16:48:57.393Z,43.87
2018-10-18T16:52:03.764Z,39.70
2018-10-18T16:55:10.530Z,41.60
2018-10-18T16:58:17.300Z,41.47
2018-10-18T17:01:25.769Z,43.53
2018-10-18T17:04:32.963Z,41.73
2018-10-18T17:07:42.009Z,41.20
2018-10-18T17:10:47.148Z,40.00
2018-10-18T17:13:54.564Z,38.67
2018-10-18T17:17:01.878Z,42.63
2018-10-18T17:20:08.848Z,39.03
2018-10-18T17:23:15.624Z,44.73
2018-10-18T17:26:23.347Z,40.03
2018-10-18T17:29:33.477Z,53.03
2018-10-18T17:32:42.567Z,45.63
2018-10-18T17:35:49.342Z,53.33
2018-10-18T17:38:56.358Z,54.10
2018-10-18T17:42:03.234Z,52.17
2018-10-18T17:45:11.425Z,67.53
2018-10-18T17:48:18.653Z,69.83
2018-10-18T17:51:25.325Z,67.80
2018-10-18T17:54:32.315Z,86.30
2018-10-18T17:57:37.813Z,92.73
2018-10-18T18:00:48.663Z,91.70
2018-10-18T18:03:53.687Z,92.47
2018-10-18T18:06:58.797Z,76.47
2018-10-18T18:10:07.580Z,61.47
2018-10-18T18:13:13.201Z,63.77
2018-10-18T18:16:18.163Z,56.63
2018-10-18T18:19:27.064Z,60.90
2018-10-18T18:22:34.036Z,55.47
2018-10-18T18:25:48.469Z,60.70
2018-10-18T18:28:56.214Z,56.90
2018-10-18T18:32:01.265Z,59.43
2018-10-18T18:35:08.482Z,60.33
2018-10-18T18:38:17.087Z,65.90
2018-10-18T18:41:24.325Z,59.83
2018-10-18T18:44:31.833Z,57.27
2018-10-18T18:47:37.930Z,58.13
2018-10-18T18:50:46.486Z,65.23
2018-10-18T18:53:53.800Z,85.33
2018-10-18T18:57:00.872Z,74.37
2018-10-18T19:00:15.376Z,64.83
2018-10-18T19:03:20.852Z,73.50
2018-10-18T19:06:28.057Z,87.07
2018-10-18T19:09:45.631Z,75.43
2018-10-18T19:12:52.799Z,81.07
2018-10-18T19:15:59.450Z,67.10
2018-10-18T19:19:12.979Z,65.67
2018-10-18T19:22:18.381Z,63.47
2018-10-18T19:25:27.373Z,62.67
2018-10-18T19:28:32.466Z,64.97
2018-10-18T19:31:39.552Z,68.03
2018-10-18T19:34:47.721Z,64.07
2018-10-18T19:37:55.234Z,63.97
2018-10-18T19:41:00.210Z,72.37
2018-10-18T19:44:07.294Z,79.93
2018-10-18T19:47:12.314Z,72.47
2018-10-18T19:50:18.956Z,68.20
2018-10-18T19:53:24.178Z,81.23
2018-10-18T19:56:31.536Z,87.80
2018-10-18T19:59:38.751Z,77.10
2018-10-18T20:02:56.307Z,85.13
2018-10-18T20:06:01.405Z,91.00
2018-10-18T20:13:07.384Z,77.43
2018-10-18T20:16:14.936Z,84.90
2018-10-18T20:19:20.358Z,81.03
2018-10-18T20:22:27.626Z,80.60
2018-10-18T20:25:36.049Z,77.17
2018-10-18T20:28:42.753Z,86.43
2018-10-18T20:31:48.240Z,87.80
2018-10-18T20:34:53.502Z,97.03
2018-10-18T20:38:05.172Z,90.17
2018-10-18T20:41:10.418Z,76.60
2018-10-18T20:44:15.399Z,77.07
2018-10-18T20:47:20.573Z,79.47
2018-10-18T20:50:25.518Z,76.57
2018-10-18T20:53:34.962Z,75.63
2018-10-18T20:56:39.978Z,71.93
2018-10-18T20:59:44.970Z,76.73
2018-10-18T21:02:50.040Z,80.43
2018-10-18T21:05:55.275Z,93.23
2018-10-18T21:09:02.563Z,88.83
2018-10-18T21:15:04.169Z,77.87
2018-10-18T21:18:09.140Z,74.87
2018-10-18T21:21:14.251Z,84.67
2018-10-18T21:24:19.191Z,72.20
2018-10-18T21:27:25.933Z,87.67
2018-10-18T21:30:30.954Z,79.23
2018-10-18T21:33:35.965Z,76.40
2018-10-18T21:36:42.859Z,76.30
2018-10-18T21:39:47.870Z,77.53
2018-10-18T21:42:54.553Z,134.73
2018-10-18T21:45:59.686Z,82.23
2018-10-18T21:49:04.711Z,96.10
2018-10-18T21:52:09.763Z,107.30
2018-10-18T21:55:14.780Z,84.03
2018-10-18T21:58:19.865Z,74.20
2018-10-18T22:01:24.908Z,70.13
2018-10-18T22:04:29.966Z,80.43
2018-10-18T22:07:35.027Z,85.70
2018-10-18T22:10:42.175Z,87.20
2018-10-18T22:13:48.577Z,90.83
2018-10-18T22:16:55.518Z,77.63
2018-10-18T22:20:00.500Z,76.40
2018-10-18T22:23:07.494Z,145.93
2018-10-18T22:26:14.019Z,222.40
2018-10-18T22:29:22.630Z,90.90
2018-10-18T22:32:29.767Z,87.67
2018-10-18T22:35:34.799Z,72.97
2018-10-18T22:38:39.855Z,73.90
2018-10-18T22:41:46.865Z,72.57
2018-10-18T22:44:54.011Z,66.20
2018-10-18T22:48:00.964Z,67.80
2018-10-18T22:51:07.671Z,68.63
2018-10-18T22:54:14.155Z,68.90
2018-10-18T22:57:21.294Z,71.73
2018-10-18T23:00:26.312Z,76.93
2018-10-18T23:03:35.259Z,76.77
2018-10-18T23:06:41.968Z,76.97
2018-10-18T23:09:46.994Z,75.23
2018-10-18T23:12:53.741Z,68.57
2018-10-18T23:16:00.671Z,85.43
2018-10-18T23:19:08.399Z,71.13
2018-10-18T23:22:13.433Z,78.57
2018-10-18T23:25:22.502Z,64.83
2018-10-18T23:28:29.282Z,63.60
2018-10-18T23:31:34.322Z,62.97
2018-10-18T23:34:41.324Z,64.10
2018-10-18T23:37:46.317Z,69.43
2018-10-18T23:40:55.693Z,64.13
2018-10-18T23:44:02.358Z,68.97
2018-10-18T23:47:07.470Z,63.13
2018-10-18T23:50:14.328Z,61.53
2018-10-18T23:53:22.970Z,52.77
2018-10-18T23:56:29.385Z,56.20
2018-10-18T23:59:36.040Z,56.60
